createdAt,value
2016-07-24T00:02:58.479Z,1013.81
2016-07-24T00:06:11.924Z,1013.91
2016-07-24T00:09:24.162Z,1013.75
2016-07-24T00:12:39.082Z,1013.81
2016-07-24T00:15:53.084Z,1013.73
2016-07-24T00:19:06.887Z,1013.83
2016-07-24T00:22:20.814Z,1013.69
2016-07-24T00:25:34.459Z,1013.69
2016-07-24T00:28:52.101Z,1013.77
2016-07-24T00:31:57.336Z,1013.67
2016-07-24T00:35:09.547Z,1013.67
2016-07-24T00:38:24.100Z,1013.75
2016-07-24T00:41:37.719Z,1013.67
2016-07-24T00:44:51.374Z,1013.73
2016-07-24T00:48:04.917Z,1013.73
2016-07-24T00:51:18.748Z,1013.71
2016-07-24T00:54:32.440Z,1013.71
2016-07-24T00:57:49.745Z,1013.71
2016-07-24T01:00:54.999Z,1013.81
2016-07-24T01:04:08.437Z,1013.71
2016-07-24T01:07:21.618Z,1013.79
2016-07-24T01:10:35.138Z,1013.77
2016-07-24T01:13:52.875Z,1013.77
2016-07-24T01:16:57.963Z,1013.71
2016-07-24T01:20:11.572Z,1013.79
2016-07-24T01:23:25.297Z,1013.79
2016-07-24T01:26:38.967Z,1013.73
2016-07-24T01:29:52.600Z,1013.71
2016-07-24T01:33:06.469Z,1013.77
2016-07-24T01:36:20.078Z,1013.63
2016-07-24T01:39:33.807Z,1013.63
2016-07-24T01:42:51.458Z,1013.65
2016-07-24T01:45:56.793Z,1013.69
2016-07-24T01:49:10.119Z,1013.65
2016-07-24T01:52:23.909Z,1013.77
2016-07-24T01:55:37.756Z,1013.75
2016-07-24T01:58:50.384Z,1013.69
2016-07-24T02:02:05.399Z,1013.83
2016-07-24T02:05:18.998Z,1013.73
2016-07-24T02:08:32.985Z,1013.77
2016-07-24T02:11:50.891Z,1013.83
2016-07-24T02:14:55.891Z,1013.69
2016-07-24T02:18:09.665Z,1013.67
2016-07-24T02:21:23.749Z,1013.79
2016-07-24T02:24:37.017Z,1013.75
2016-07-24T02:27:54.719Z,1013.83
2016-07-24T02:30:59.751Z,1013.79
2016-07-24T02:34:13.491Z,1013.71
2016-07-24T02:37:27.062Z,1013.67
2016-07-24T02:40:40.810Z,1013.67
2016-07-24T02:43:54.349Z,1013.69
2016-07-24T02:47:08.177Z,1013.71
2016-07-24T02:50:21.622Z,1013.55
2016-07-24T02:53:35.357Z,1013.67
2016-07-24T02:56:53.084Z,1013.75
2016-07-24T02:59:58.084Z,1013.69
2016-07-24T03:03:11.758Z,1013.75
2016-07-24T03:06:25.099Z,1013.87
2016-07-24T03:09:38.444Z,1013.85
2016-07-24T03:12:51.632Z,1013.83
2016-07-24T03:16:05.208Z,1013.91
2016-07-24T03:19:17.796Z,1013.93
2016-07-24T03:22:32.357Z,1013.81
2016-07-24T03:25:50.173Z,1013.91
2016-07-24T03:28:55.213Z,1013.87
2016-07-24T03:32:09.008Z,1013.91
2016-07-24T03:35:22.854Z,1013.87
2016-07-24T03:38:36.713Z,1013.87
2016-07-24T03:41:54.300Z,1013.91
2016-07-24T03:44:59.369Z,1013.93
2016-07-24T03:48:13.048Z,1014.03
2016-07-24T03:51:26.904Z,1013.95
2016-07-24T03:54:40.759Z,1014.03
2016-07-24T03:57:54.540Z,1013.91
2016-07-24T04:01:08.496Z,1013.87
2016-07-24T04:04:21.998Z,1013.91
2016-07-24T04:07:35.763Z,1013.91
2016-07-24T04:10:53.552Z,1013.91
2016-07-24T04:13:58.519Z,1013.85
2016-07-24T04:17:12.223Z,1013.85
2016-07-24T04:20:26.081Z,1013.89
2016-07-24T04:23:39.735Z,1013.89
2016-07-24T04:26:53.460Z,1013.83
2016-07-24T04:30:07.012Z,1013.99
2016-07-24T04:33:20.990Z,1013.95
2016-07-24T04:36:34.770Z,1013.87
2016-07-24T04:39:52.352Z,1013.83
2016-07-24T04:42:57.325Z,1013.97
2016-07-24T04:46:11.137Z,1013.91
2016-07-24T04:49:24.933Z,1013.87
2016-07-24T04:52:38.662Z,1013.87
2016-07-24T04:55:52.136Z,1013.93
2016-07-24T04:59:05.842Z,1013.89
2016-07-24T05:02:19.150Z,1013.91
2016-07-24T05:05:32.346Z,1013.79
2016-07-24T05:08:48.974Z,1013.81
2016-07-24T05:11:53.985Z,1013.75
2016-07-24T05:15:07.538Z,1013.67
2016-07-24T05:18:20.940Z,1013.73
2016-07-24T05:21:34.459Z,1013.77
2016-07-24T05:24:52.074Z,1013.71
2016-07-24T05:27:57.291Z,1013.63
2016-07-24T05:31:10.719Z,1013.57
2016-07-24T05:34:24.323Z,1013.57
2016-07-24T05:37:36.849Z,1013.51
2016-07-24T05:40:51.824Z,1013.43
2016-07-24T05:44:05.546Z,1013.57
2016-07-24T05:47:19.004Z,1013.51
2016-07-24T05:50:32.601Z,1013.47
2016-07-24T05:53:49.699Z,1013.45
2016-07-24T05:56:54.899Z,1013.47
2016-07-24T06:00:08.744Z,1013.51
2016-07-24T06:03:22.804Z,1013.57
2016-07-24T06:06:36.373Z,1013.47
2016-07-24T06:09:53.841Z,1013.51
2016-07-24T06:12:59.381Z,1013.51
2016-07-24T06:16:13.104Z,1013.41
2016-07-24T06:19:27.274Z,1013.49
2016-07-24T06:22:41.074Z,1013.35
2016-07-24T06:25:55.218Z,1013.45
2016-07-24T06:29:08.878Z,1013.43
2016-07-24T06:32:22.890Z,1013.47
2016-07-24T06:35:36.717Z,1013.45
2016-07-24T06:38:54.544Z,1013.45
2016-07-24T06:42:00.114Z,1013.43
2016-07-24T06:45:13.916Z,1013.43
2016-07-24T06:48:27.516Z,1013.45
2016-07-24T06:51:45.514Z,1013.41
2016-07-24T06:54:55.123Z,1013.45
2016-07-24T06:58:00.585Z,1013.39
2016-07-24T07:01:15.048Z,1013.41
2016-07-24T07:04:29.115Z,1013.43
2016-07-24T07:07:47.525Z,1013.27
2016-07-24T07:10:53.418Z,1013.31
2016-07-24T07:14:07.969Z,1013.35
2016-07-24T07:17:22.265Z,1013.13
2016-07-24T07:20:36.528Z,1013.19
2016-07-24T07:23:54.389Z,1013.23
2016-07-24T07:27:00.597Z,1013.31
2016-07-24T07:30:14.976Z,1013.23
2016-07-24T07:33:29.175Z,1013.35
2016-07-24T07:36:47.332Z,1013.31
2016-07-24T07:39:53.280Z,1013.21
2016-07-24T07:43:07.763Z,1013.31
2016-07-24T07:46:22.108Z,1013.13
2016-07-24T07:49:36.075Z,1013.19
2016-07-24T07:52:54.180Z,1013.15
2016-07-24T07:56:00.160Z,1013.17
2016-07-24T07:59:14.394Z,1013.21
2016-07-24T08:02:29.054Z,1013.19
2016-07-24T08:05:47.706Z,1013.21
2016-07-24T08:08:53.880Z,1013.25
2016-07-24T08:12:08.645Z,1013.23
2016-07-24T08:15:22.999Z,1013.19
2016-07-24T08:18:37.697Z,1013.15
2016-07-24T08:21:52.222Z,1013.13
2016-07-24T08:25:06.704Z,1013.13
2016-07-24T08:28:21.756Z,1013.15
2016-07-24T08:31:35.467Z,1013.07
2016-07-24T08:34:55.266Z,1013.11
2016-07-24T08:38:01.659Z,1013
2016-07-24T08:41:16.548Z,1012.96
2016-07-24T08:44:31.480Z,1012.94
2016-07-24T08:47:49.796Z,1012.88
2016-07-24T08:50:56.141Z,1012.98
2016-07-24T08:54:10.567Z,1013.07
2016-07-24T08:57:25.146Z,1013.09
2016-07-24T09:00:39.579Z,1013.21
2016-07-24T09:03:54.047Z,1013.23
2016-07-24T09:07:08.287Z,1013.17
2016-07-24T09:10:22.978Z,1013.21
2016-07-24T09:13:37.427Z,1013.19
2016-07-24T09:16:51.722Z,1013.29
2016-07-24T09:20:05.901Z,1013.33
2016-07-24T09:23:20.579Z,1013.29
2016-07-24T09:26:35.144Z,1013.31
2016-07-24T09:29:53.482Z,1013.25
2016-07-24T09:32:59.602Z,1013.29
2016-07-24T09:36:13.539Z,1013.35
2016-07-24T09:39:28.299Z,1013.29
2016-07-24T09:42:46.494Z,1013.51
2016-07-24T09:45:52.482Z,1013.45
2016-07-24T09:49:06.784Z,1013.33
2016-07-24T09:52:20.993Z,1013.35
2016-07-24T09:55:34.758Z,1013.35
2016-07-24T09:58:53.050Z,1013.35
2016-07-24T10:01:59.256Z,1013.39
2016-07-24T10:05:13.809Z,1013.23
2016-07-24T10:08:28.501Z,1013.19
2016-07-24T10:11:46.819Z,1013.11
2016-07-24T10:14:52.870Z,1013.21
2016-07-24T10:18:06.275Z,1013.07
2016-07-24T10:21:21.577Z,1013.21
2016-07-24T10:24:35.842Z,1013.25
2016-07-24T10:27:53.860Z,1013.21
2016-07-24T10:30:59.683Z,1013.31
2016-07-24T10:34:13.156Z,1013.27
2016-07-24T10:37:27.679Z,1013.19
2016-07-24T10:40:45.994Z,1013.13
2016-07-24T10:43:52.050Z,1013.13
2016-07-24T10:47:06.507Z,1013.31
2016-07-24T10:50:20.444Z,1013.27
2016-07-24T10:53:34.755Z,1013.27
2016-07-24T10:56:53.071Z,1013.11
2016-07-24T10:59:59.115Z,1013.13
2016-07-24T11:03:13.170Z,1013.17
2016-07-24T11:06:27.500Z,1013.11
2016-07-24T11:09:45.725Z,1013.21
2016-07-24T11:12:51.803Z,1013.17
2016-07-24T11:16:06.270Z,1013.17
2016-07-24T11:19:20.315Z,1013.06
2016-07-24T11:22:34.534Z,1013.02
2016-07-24T11:25:52.610Z,1013.06
2016-07-24T11:28:58.507Z,1013.06
2016-07-24T11:32:12.791Z,1013.04
2016-07-24T11:35:26.919Z,1012.98
2016-07-24T11:38:41.089Z,1012.92
2016-07-24T11:41:55.166Z,1013
2016-07-24T11:45:09.212Z,1013
2016-07-24T11:48:23.266Z,1012.98
2016-07-24T11:51:36.915Z,1012.94
2016-07-24T11:54:55.248Z,1012.88
2016-07-24T11:58:00.928Z,1012.92
2016-07-24T12:01:15.021Z,1012.88
2016-07-24T12:04:29.053Z,1012.86
2016-07-24T12:07:46.588Z,1012.82
2016-07-24T12:10:52.415Z,1012.96
2016-07-24T12:14:05.869Z,1012.88
2016-07-24T12:17:19.979Z,1012.82
2016-07-24T12:20:34.050Z,1012.82
2016-07-24T12:23:51.968Z,1012.72
2016-07-24T12:26:57.674Z,1012.76
2016-07-24T12:30:11.654Z,1012.72
2016-07-24T12:33:25.676Z,1012.72
2016-07-24T12:36:39.699Z,1012.72
2016-07-24T12:39:53.508Z,1012.72
2016-07-24T12:43:07.687Z,1012.66
2016-07-24T12:46:21.783Z,1012.64
2016-07-24T12:49:35.986Z,1012.6
2016-07-24T12:52:53.672Z,1012.68
2016-07-24T12:55:59.451Z,1012.62
2016-07-24T12:59:13.049Z,1012.56
2016-07-24T13:02:27.358Z,1012.6
2016-07-24T13:05:41.559Z,1012.62
2016-07-24T13:08:55.751Z,1012.56
2016-07-24T13:12:10.065Z,1012.56
2016-07-24T13:15:24.103Z,1012.48
2016-07-24T13:18:38.430Z,1012.46
2016-07-24T13:21:52.767Z,1012.46
2016-07-24T13:25:06.437Z,1012.52
2016-07-24T13:28:19.933Z,1012.46
2016-07-24T13:31:33.297Z,1012.44
2016-07-24T13:34:51.097Z,1012.42
2016-07-24T13:37:57.064Z,1012.46
2016-07-24T13:41:11.019Z,1012.44
2016-07-24T13:44:24.797Z,1012.38
2016-07-24T13:47:38.711Z,1012.36
2016-07-24T13:50:52.971Z,1012.34
2016-07-24T13:54:07.402Z,1012.34
2016-07-24T13:57:21.358Z,1012.28
2016-07-24T14:00:35.550Z,1012.28
2016-07-24T14:03:53.742Z,1012.22
2016-07-24T14:06:59.611Z,1012.18
2016-07-24T14:10:13.625Z,1012.18
2016-07-24T14:13:27.529Z,1012.18
2016-07-24T14:16:45.651Z,1012.22
2016-07-24T14:19:51.707Z,1012.18
2016-07-24T14:23:05.708Z,1012.18
2016-07-24T14:26:19.923Z,1012.26
2016-07-24T14:29:34.103Z,1012.16
2016-07-24T14:32:52.155Z,1012.14
2016-07-24T14:35:58.051Z,1012.14
2016-07-24T14:39:12.476Z,1012.1
2016-07-24T14:42:25.403Z,1012.08
2016-07-24T14:45:39.800Z,1012.04
2016-07-24T14:48:54.089Z,1012
2016-07-24T14:52:08.505Z,1011.96
2016-07-24T14:55:22.897Z,1011.96
2016-07-24T14:58:37.360Z,1011.94
2016-07-24T15:01:51.844Z,1011.88
2016-07-24T15:05:06.279Z,1011.96
2016-07-24T15:08:20.380Z,1011.94
2016-07-24T15:11:34.401Z,1011.92
2016-07-24T15:14:52.784Z,1011.96
2016-07-24T15:17:58.586Z,1011.9
2016-07-24T15:21:12.843Z,1011.86
2016-07-24T15:24:27.371Z,1011.86
2016-07-24T15:27:41.300Z,1011.9
2016-07-24T15:30:55.557Z,1011.96
2016-07-24T15:34:09.652Z,1011.92
2016-07-24T15:37:23.343Z,1011.9
2016-07-24T15:40:37.959Z,1011.9
2016-07-24T15:43:55.433Z,1011.82
2016-07-24T15:47:01.324Z,1011.78
2016-07-24T15:50:15.896Z,1011.78
2016-07-24T15:53:30.101Z,1011.76
2016-07-24T15:56:47.770Z,1011.8
2016-07-24T15:59:53.589Z,1011.82
2016-07-24T16:03:07.970Z,1011.8
2016-07-24T16:06:22.147Z,1011.78
2016-07-24T16:09:36.405Z,1011.76
2016-07-24T16:12:54.795Z,1011.57
2016-07-24T16:16:00.765Z,1011.61
2016-07-24T16:19:14.698Z,1011.68
2016-07-24T16:22:29.017Z,1011.63
2016-07-24T16:25:47.507Z,1011.7
2016-07-24T16:28:53.370Z,1011.66
2016-07-24T16:32:07.787Z,1011.51
2016-07-24T16:35:21.617Z,1011.59
2016-07-24T16:38:36.053Z,1011.68
2016-07-24T16:41:54.095Z,1011.57
2016-07-24T16:44:59.937Z,1011.63
2016-07-24T16:48:13.699Z,1011.59
2016-07-24T16:51:27.614Z,1011.63
2016-07-24T16:54:41.517Z,1011.57
2016-07-24T16:57:55.545Z,1011.72
2016-07-24T17:01:09.916Z,1011.57
2016-07-24T17:04:24.020Z,1011.59
2016-07-24T17:07:37.965Z,1011.63
2016-07-24T17:10:52.113Z,1011.7
2016-07-24T17:14:06.575Z,1011.63
2016-07-24T17:17:21.200Z,1011.59
2016-07-24T17:20:35.194Z,1011.61
2016-07-24T17:23:53.107Z,1011.64
2016-07-24T17:26:58.952Z,1011.55
2016-07-24T17:30:11.709Z,1011.51
2016-07-24T17:33:27.107Z,1011.57
2016-07-24T17:36:41.474Z,1011.61
2016-07-24T17:39:55.527Z,1011.53
2016-07-24T17:43:09.797Z,1011.41
2016-07-24T17:46:23.844Z,1011.49
2016-07-24T17:49:38.043Z,1011.49
2016-07-24T17:52:55.608Z,1011.55
2016-07-24T17:56:01.403Z,1011.59
2016-07-24T17:59:15.718Z,1011.49
2016-07-24T18:02:28.717Z,1011.53
2016-07-24T18:05:48.174Z,1011.57
2016-07-24T18:08:53.941Z,1011.64
2016-07-24T18:12:08.295Z,1011.68
2016-07-24T18:15:22.404Z,1011.63
2016-07-24T18:18:37.024Z,1011.68
2016-07-24T18:21:55.689Z,1011.66
2016-07-24T18:25:01.509Z,1011.72
2016-07-24T18:28:15.897Z,1011.74
2016-07-24T18:31:30.439Z,1011.74
2016-07-24T18:34:48.658Z,1011.68
2016-07-24T18:37:54.481Z,1011.7
2016-07-24T18:41:06.324Z,1011.8
2016-07-24T18:44:20.573Z,1011.78
2016-07-24T18:47:35.149Z,1011.84
2016-07-24T18:50:53.098Z,1011.84
2016-07-24T18:53:59.000Z,1011.9
2016-07-24T18:57:13.242Z,1011.92
2016-07-24T19:00:27.157Z,1011.88
2016-07-24T19:03:40.494Z,1011.88
2016-07-24T19:06:54.471Z,1011.96
2016-07-24T19:10:08.546Z,1011.98
2016-07-24T19:13:22.562Z,1012.02
2016-07-24T19:16:36.776Z,1012.02
2016-07-24T19:19:54.811Z,1012.08
2016-07-24T19:23:00.602Z,1012.12
2016-07-24T19:26:14.712Z,1012.16
2016-07-24T19:29:28.839Z,1012.14
2016-07-24T19:32:47.059Z,1012.16
2016-07-24T19:35:52.682Z,1012.2
2016-07-24T19:39:06.826Z,1012.26
2016-07-24T19:42:20.773Z,1012.24
2016-07-24T19:45:34.711Z,1012.26
2016-07-24T19:48:52.168Z,1012.24
2016-07-24T19:51:57.902Z,1012.36
2016-07-24T19:55:11.428Z,1012.42
2016-07-24T19:58:25.175Z,1012.32
2016-07-24T20:01:37.534Z,1012.3
2016-07-24T20:04:55.699Z,1012.38
2016-07-24T20:08:01.319Z,1012.32
2016-07-24T20:11:14.900Z,1012.44
2016-07-24T20:14:28.780Z,1012.36
2016-07-24T20:17:46.759Z,1012.36
2016-07-24T20:20:52.429Z,1012.42
2016-07-24T20:24:06.130Z,1012.5
2016-07-24T20:27:20.070Z,1012.44
2016-07-24T20:30:33.966Z,1012.46
2016-07-24T20:33:52.822Z,1012.4
2016-07-24T20:36:57.396Z,1012.56
2016-07-24T20:40:11.566Z,1012.56
2016-07-24T20:43:25.300Z,1012.62
2016-07-24T20:46:38.717Z,1012.5
2016-07-24T20:49:52.992Z,1012.5
2016-07-24T20:53:06.067Z,1012.54
2016-07-24T20:56:19.948Z,1012.5
2016-07-24T20:59:33.204Z,1012.58
2016-07-24T21:02:50.895Z,1012.5
2016-07-24T21:05:56.415Z,1012.52
2016-07-24T21:09:10.771Z,1012.5
2016-07-24T21:12:24.932Z,1012.56
2016-07-24T21:15:38.599Z,1012.5
2016-07-24T21:18:52.241Z,1012.5
2016-07-24T21:22:06.715Z,1012.6
2016-07-24T21:25:19.593Z,1012.56
2016-07-24T21:28:34.005Z,1012.56
2016-07-24T21:31:51.756Z,1012.56
2016-07-24T21:34:57.321Z,1012.52
2016-07-24T21:38:11.293Z,1012.58
2016-07-24T21:41:25.665Z,1012.52
2016-07-24T21:44:39.682Z,1012.6
2016-07-24T21:47:53.447Z,1012.66
2016-07-24T21:51:07.349Z,1012.6
2016-07-24T21:54:20.088Z,1012.64
2016-07-24T21:57:33.878Z,1012.66
2016-07-24T22:00:51.513Z,1012.62
2016-07-24T22:03:57.004Z,1012.62
2016-07-24T22:07:10.438Z,1012.56
2016-07-24T22:10:24.182Z,1012.7
2016-07-24T22:13:38.035Z,1012.7
2016-07-24T22:16:52.036Z,1012.7
2016-07-24T22:20:05.836Z,1012.7
2016-07-24T22:23:19.479Z,1012.62
2016-07-24T22:26:33.235Z,1012.62
2016-07-24T22:29:51.122Z,1012.68
2016-07-24T22:32:56.689Z,1012.7
2016-07-24T22:36:10.731Z,1012.68
2016-07-24T22:39:24.182Z,1012.64
2016-07-24T22:42:38.213Z,1012.68
2016-07-24T22:45:55.943Z,1012.7
2016-07-24T22:49:01.270Z,1012.66
2016-07-24T22:52:15.302Z,1012.66
2016-07-24T22:55:28.747Z,1012.66
2016-07-24T22:58:46.584Z,1012.62
2016-07-24T23:01:52.170Z,1012.62
2016-07-24T23:05:06.280Z,1012.56
2016-07-24T23:08:20.398Z,1012.52
2016-07-24T23:11:34.323Z,1012.6
2016-07-24T23:14:52.545Z,1012.5
2016-07-24T23:17:58.015Z,1012.54
2016-07-24T23:21:12.244Z,1012.5
2016-07-24T23:24:26.106Z,1012.56
2016-07-24T23:27:40.294Z,1012.52
2016-07-24T23:30:53.218Z,1012.56
2016-07-24T23:34:08.554Z,1012.6
2016-07-24T23:37:22.651Z,1012.66
2016-07-24T23:40:36.863Z,1012.6
2016-07-24T23:43:55.099Z,1012.62
2016-07-24T23:47:00.350Z,1012.56
2016-07-24T23:50:11.039Z,1012.54
2016-07-24T23:53:25.266Z,1012.54
2016-07-24T23:56:39.221Z,1012.46
2016-07-24T23:59:53.256Z,1012.36
